createdAt,value
2023-05-12T00:00:55.915Z,68.90
2023-05-12T00:03:27.110Z,68.24
2023-05-12T00:05:57.584Z,68.09
2023-05-12T00:08:30.300Z,67.68
2023-05-12T00:11:00.841Z,67.32
2023-05-12T00:13:31.508Z,66.83
2023-05-12T00:16:01.846Z,66.66
2023-05-12T00:18:32.359Z,66.35
2023-05-12T00:21:02.667Z,65.92
2023-05-12T00:23:32.936Z,65.66
2023-05-12T00:26:04.114Z,65.66
2023-05-12T00:28:34.789Z,66.00
2023-05-12T00:31:06.571Z,66.04
2023-05-12T00:33:36.918Z,65.75
2023-05-12T00:36:07.911Z,65.55
2023-05-12T00:38:39.763Z,65.53
2023-05-12T00:41:10.067Z,65.01
2023-05-12T00:43:40.849Z,65.21
2023-05-12T00:46:11.756Z,65.16
2023-05-12T00:48:42.164Z,64.75
2023-05-12T00:51:13.257Z,64.96
2023-05-12T00:53:49.849Z,65.11
2023-05-12T00:56:25.321Z,64.98
2023-05-12T00:58:56.021Z,65.05
2023-05-12T01:01:26.476Z,65.24
2023-05-12T01:03:58.216Z,64.77
2023-05-12T01:06:36.595Z,64.97
2023-05-12T01:09:07.368Z,65.00
2023-05-12T01:11:37.739Z,64.97
2023-05-12T01:14:09.121Z,65.18
2023-05-12T01:16:45.768Z,65.14
2023-05-12T01:19:36.185Z,65.20
2023-05-12T01:22:07.731Z,65.11
2023-05-12T01:24:48.257Z,65.29
2023-05-12T01:27:19.913Z,65.05
2023-05-12T01:29:52.483Z,64.81
2023-05-12T01:32:24.353Z,65.20
2023-05-12T01:34:55.427Z,64.99
2023-05-12T01:37:29.618Z,65.25
2023-05-12T01:40:01.150Z,65.23
2023-05-12T01:42:32.046Z,64.83
2023-05-12T01:45:02.943Z,64.99
2023-05-12T01:47:34.175Z,65.19
2023-05-12T01:50:10.572Z,64.92
2023-05-12T01:52:41.572Z,65.06
2023-05-12T01:55:15.245Z,65.02
2023-05-12T01:57:53.892Z,64.90
2023-05-12T02:00:24.789Z,64.82
2023-05-12T02:02:58.387Z,64.77
2023-05-12T02:05:28.910Z,65.09
2023-05-12T02:07:59.986Z,64.70
2023-05-12T02:10:30.360Z,64.65
2023-05-12T02:13:01.073Z,64.67
2023-05-12T02:15:33.059Z,64.45
2023-05-12T02:18:03.661Z,64.71
2023-05-12T02:20:34.325Z,64.27
2023-05-12T02:23:05.649Z,64.17
2023-05-12T02:25:37.021Z,64.28
2023-05-12T02:28:07.339Z,64.71
2023-05-12T02:30:37.734Z,63.94
2023-05-12T02:33:08.879Z,64.36
2023-05-12T02:35:39.437Z,64.40
2023-05-12T02:38:10.446Z,64.05
2023-05-12T02:40:41.173Z,63.97
2023-05-12T02:43:12.756Z,64.41
2023-05-12T02:45:43.926Z,64.46
2023-05-12T02:48:14.411Z,64.13
2023-05-12T02:50:44.595Z,64.16
2023-05-12T02:53:14.768Z,64.50
2023-05-12T02:55:45.723Z,63.47
2023-05-12T02:58:16.013Z,63.88
2023-05-12T03:00:48.672Z,64.03
2023-05-12T03:03:22.781Z,64.33
2023-05-12T03:05:54.672Z,64.18
2023-05-12T03:08:25.087Z,64.94
2023-05-12T03:10:55.266Z,63.76
2023-05-12T03:13:26.068Z,64.10
2023-05-12T03:15:56.820Z,63.73
2023-05-12T03:18:27.081Z,63.30
2023-05-12T03:20:57.845Z,63.73
2023-05-12T03:23:28.382Z,63.62
2023-05-12T03:25:58.794Z,63.70
2023-05-12T03:28:30.130Z,63.96
2023-05-12T03:31:00.499Z,63.98
2023-05-12T03:33:31.931Z,63.96
2023-05-12T03:36:03.701Z,64.43
2023-05-12T03:38:34.203Z,64.44
2023-05-12T03:41:10.677Z,64.29
2023-05-12T03:43:41.160Z,64.27
2023-05-12T03:46:11.973Z,64.37
2023-05-12T03:48:42.386Z,64.15
2023-05-12T03:51:12.904Z,64.25
2023-05-12T03:53:47.538Z,64.04
2023-05-12T03:56:18.151Z,64.10
2023-05-12T03:58:51.507Z,64.09
2023-05-12T04:01:22.462Z,63.97
2023-05-12T04:03:53.195Z,63.89
2023-05-12T04:06:23.745Z,63.89
2023-05-12T04:08:53.958Z,63.62
2023-05-12T04:11:24.523Z,63.52
2023-05-12T04:13:54.848Z,63.29
2023-05-12T04:16:25.301Z,63.40
2023-05-12T04:18:55.654Z,63.31
2023-05-12T04:21:25.818Z,63.19
2023-05-12T04:23:56.243Z,63.11
2023-05-12T04:26:29.764Z,63.20
2023-05-12T04:29:00.215Z,63.28
2023-05-12T04:31:30.607Z,63.17
2023-05-12T04:34:01.411Z,63.16
2023-05-12T04:36:33.970Z,63.11
2023-05-12T04:39:04.954Z,63.08
2023-05-12T04:41:35.526Z,63.14
2023-05-12T04:44:05.769Z,62.98
2023-05-12T04:46:37.223Z,62.88
2023-05-12T04:49:08.565Z,62.72
2023-05-12T04:51:44.596Z,62.89
2023-05-12T04:54:14.899Z,62.63
2023-05-12T04:56:45.908Z,62.77
2023-05-12T04:59:20.188Z,62.65
2023-05-12T05:01:53.630Z,62.74
2023-05-12T05:04:24.439Z,62.65
2023-05-12T05:06:54.855Z,62.82
2023-05-12T05:09:25.827Z,62.70
2023-05-12T05:11:56.105Z,62.75
2023-05-12T05:14:26.584Z,62.51
2023-05-12T05:16:57.743Z,62.49
2023-05-12T05:19:39.083Z,62.26
2023-05-12T05:22:18.441Z,62.36
2023-05-12T05:24:49.596Z,62.50
2023-05-12T05:27:19.916Z,62.61
2023-05-12T05:29:50.477Z,62.31
2023-05-12T05:32:20.891Z,62.22
2023-05-12T05:34:51.243Z,62.44
2023-05-12T05:37:22.277Z,62.28
2023-05-12T05:39:53.793Z,62.10
2023-05-12T05:42:24.137Z,62.02
2023-05-12T05:44:54.400Z,61.70
2023-05-12T05:47:24.661Z,61.62
2023-05-12T05:49:55.628Z,61.55
2023-05-12T05:52:26.837Z,61.59
2023-05-12T05:54:56.862Z,61.63
2023-05-12T05:57:30.621Z,61.71
2023-05-12T06:00:02.867Z,61.45
2023-05-12T06:02:44.252Z,61.50
2023-05-12T06:05:18.994Z,61.43
2023-05-12T06:07:49.561Z,61.50
2023-05-12T06:10:20.285Z,61.28
2023-05-12T06:12:52.729Z,61.22
2023-05-12T06:15:24.434Z,61.51
2023-05-12T06:17:54.809Z,61.29
2023-05-12T06:20:25.791Z,61.40
2023-05-12T06:22:56.240Z,61.18
2023-05-12T06:25:26.670Z,61.22
2023-05-12T06:27:56.963Z,61.07
2023-05-12T06:30:27.600Z,60.91
2023-05-12T06:32:58.593Z,60.63
2023-05-12T06:35:29.027Z,60.54
2023-05-12T06:37:59.401Z,60.55
2023-05-12T06:40:30.384Z,60.37
2023-05-12T06:43:00.933Z,59.88
2023-05-12T06:45:31.288Z,60.03
2023-05-12T06:48:04.023Z,59.93
2023-05-12T06:50:34.530Z,59.98
2023-05-12T06:53:05.101Z,59.87
2023-05-12T06:55:35.313Z,59.67
2023-05-12T06:58:05.616Z,59.34
2023-05-12T07:00:35.956Z,59.50
2023-05-12T07:03:06.666Z,59.64
2023-05-12T07:05:37.003Z,59.70
2023-05-12T07:08:07.679Z,59.83
2023-05-12T07:10:38.379Z,59.82
2023-05-12T07:13:10.284Z,59.66
2023-05-12T07:15:40.638Z,59.38
2023-05-12T07:18:11.003Z,59.29
2023-05-12T07:20:41.444Z,59.12
2023-05-12T07:23:11.964Z,59.04
2023-05-12T07:25:42.369Z,59.00
2023-05-12T07:28:12.944Z,58.62
2023-05-12T07:30:43.291Z,57.98
2023-05-12T07:33:13.680Z,58.16
2023-05-12T07:35:43.718Z,58.07
2023-05-12T07:38:14.303Z,57.86
2023-05-12T07:40:45.721Z,57.74
2023-05-12T07:43:16.000Z,57.57
2023-05-12T07:45:47.160Z,57.70
2023-05-12T07:48:17.734Z,57.56
2023-05-12T07:50:47.876Z,57.46
2023-05-12T07:53:17.890Z,57.50
2023-05-12T07:55:48.887Z,56.89
2023-05-12T07:58:18.830Z,56.99
2023-05-12T08:00:48.956Z,56.81
2023-05-12T08:03:19.409Z,56.67
2023-05-12T08:05:49.876Z,56.78
2023-05-12T08:08:20.202Z,56.87
2023-05-12T08:10:50.494Z,56.69
2023-05-12T08:13:21.101Z,56.61
2023-05-12T08:15:52.504Z,56.92
2023-05-12T08:18:23.355Z,56.51
2023-05-12T08:20:53.792Z,56.53
2023-05-12T08:23:25.053Z,56.67
2023-05-12T08:25:56.690Z,56.74
2023-05-12T08:28:28.097Z,56.85
2023-05-12T08:30:58.967Z,56.82
2023-05-12T08:33:29.135Z,56.89
2023-05-12T08:35:59.390Z,56.82
2023-05-12T08:38:29.617Z,56.66
2023-05-12T08:41:22.737Z,56.67
2023-05-12T08:43:54.626Z,56.68
2023-05-12T08:46:26.094Z,56.64
2023-05-12T08:48:58.234Z,56.67
2023-05-12T08:51:30.726Z,56.84
2023-05-12T08:54:01.685Z,56.65
2023-05-12T08:59:09.062Z,56.11
2023-05-12T09:01:40.606Z,56.18
2023-05-12T09:04:11.586Z,55.81
2023-05-12T09:06:41.871Z,55.44
2023-05-12T09:09:12.728Z,55.43
2023-05-12T09:11:45.293Z,55.69
2023-05-12T09:14:24.267Z,55.39
2023-05-12T09:17:07.156Z,55.23
2023-05-12T09:19:38.028Z,55.05
2023-05-12T09:22:09.844Z,55.04
2023-05-12T09:24:43.857Z,54.49
2023-05-12T09:27:14.154Z,54.55
2023-05-12T09:29:59.040Z,54.56
2023-05-12T09:32:35.418Z,54.65
2023-05-12T09:35:11.368Z,54.23
2023-05-12T09:37:45.335Z,54.30
2023-05-12T09:40:16.219Z,53.99
2023-05-12T09:42:49.265Z,53.96
2023-05-12T09:45:19.672Z,54.15
2023-05-12T09:47:50.466Z,54.26
2023-05-12T09:50:21.746Z,54.31
2023-05-12T09:52:53.611Z,54.32
2023-05-12T09:55:25.595Z,54.32
2023-05-12T09:57:56.994Z,54.14
2023-05-12T10:00:43.478Z,54.21
2023-05-12T10:03:19.995Z,54.05
2023-05-12T10:06:05.601Z,54.10
2023-05-12T10:08:44.769Z,54.06
2023-05-12T10:11:15.945Z,53.99
2023-05-12T10:13:46.853Z,53.88
2023-05-12T10:16:17.312Z,54.11
2023-05-12T10:18:47.985Z,54.07
2023-05-12T10:21:19.368Z,54.12
2023-05-12T10:23:51.337Z,54.08
2023-05-12T10:26:22.456Z,54.30
2023-05-12T10:28:53.584Z,54.51
2023-05-12T10:31:24.780Z,54.19
2023-05-12T10:34:02.273Z,54.51
2023-05-12T10:36:32.774Z,54.61
2023-05-12T10:39:08.950Z,54.65
2023-05-12T10:41:39.774Z,54.53
2023-05-12T10:44:10.243Z,54.50
2023-05-12T10:46:41.059Z,54.50
2023-05-12T10:49:14.864Z,54.35
2023-05-12T10:51:48.233Z,54.30
2023-05-12T10:54:25.252Z,54.26
2023-05-12T10:57:00.725Z,54.00
2023-05-12T10:59:31.610Z,54.20
2023-05-12T11:02:18.823Z,54.33
2023-05-12T11:04:55.501Z,54.15
2023-05-12T11:07:32.552Z,54.39
2023-05-12T11:10:06.245Z,54.04
2023-05-12T11:12:38.397Z,54.05
2023-05-12T11:15:09.391Z,54.12
2023-05-12T11:17:43.596Z,54.07
2023-05-12T11:20:24.327Z,54.46
2023-05-12T11:22:55.216Z,54.41
2023-05-12T11:25:25.439Z,54.20
2023-05-12T11:27:55.545Z,54.45
2023-05-12T11:30:26.031Z,54.57
2023-05-12T11:33:06.215Z,54.14
2023-05-12T13:21:25.613Z,55.71
2023-05-12T13:23:55.906Z,55.54
2023-05-12T13:26:26.129Z,55.51
2023-05-12T13:28:56.373Z,55.26
2023-05-12T13:31:26.838Z,54.93
2023-05-12T13:33:57.278Z,54.58
2023-05-12T13:36:27.674Z,54.33
2023-05-12T13:38:57.993Z,53.72
2023-05-12T13:41:28.408Z,53.81
2023-05-12T13:43:58.848Z,53.96
2023-05-12T13:46:28.964Z,53.98
2023-05-12T13:48:59.240Z,54.25
2023-05-12T13:51:29.702Z,54.41
2023-05-12T13:53:59.922Z,54.45
2023-05-12T13:56:30.687Z,54.81
2023-05-12T13:59:01.212Z,55.00
2023-05-12T14:01:31.740Z,55.43
2023-05-12T14:04:02.362Z,55.74
2023-05-12T14:06:32.822Z,56.08
2023-05-12T14:09:02.867Z,56.28
2023-05-12T14:11:33.165Z,56.55
2023-05-12T14:14:05.230Z,57.00
2023-05-12T14:16:37.465Z,57.48
2023-05-12T14:19:07.860Z,57.41
2023-05-12T14:21:38.533Z,57.76
2023-05-12T14:24:10.228Z,58.14
2023-05-12T14:26:40.794Z,58.14
2023-05-12T14:29:11.263Z,58.73
2023-05-12T14:31:41.799Z,58.49
2023-05-12T14:34:12.416Z,58.64
2023-05-12T14:36:42.919Z,59.09
2023-05-12T14:39:13.311Z,59.37
2023-05-12T14:41:43.642Z,59.95
2023-05-12T14:44:13.898Z,60.68
2023-05-12T14:46:44.138Z,60.81
2023-05-12T14:51:58.490Z,61.68
2023-05-12T14:54:29.561Z,61.94
2023-05-12T14:56:59.905Z,61.81
2023-05-12T14:59:32.488Z,62.27
2023-05-12T15:02:02.942Z,62.24
2023-05-12T15:04:34.001Z,62.41
2023-05-12T15:07:04.245Z,62.86
2023-05-12T15:09:34.410Z,63.21
2023-05-12T15:12:06.313Z,63.11
2023-05-12T15:14:36.622Z,63.66
2023-05-12T15:17:07.512Z,64.95
2023-05-12T15:19:37.816Z,66.07
2023-05-12T15:22:08.231Z,66.81
2023-05-12T15:24:38.612Z,67.07
2023-05-12T15:27:11.221Z,67.84
2023-05-12T15:29:42.633Z,67.83
2023-05-12T15:32:12.946Z,67.77
2023-05-12T15:34:43.256Z,68.18
2023-05-12T15:37:14.101Z,68.35
2023-05-12T15:39:44.981Z,68.24
2023-05-12T15:42:22.229Z,67.42
2023-05-12T15:44:56.277Z,67.10
2023-05-12T15:47:26.437Z,66.63
2023-05-12T15:49:56.784Z,66.34
2023-05-12T15:52:27.345Z,66.44
2023-05-12T15:54:57.816Z,67.90
2023-05-12T15:57:28.818Z,66.48
2023-05-12T16:00:02.846Z,68.22
2023-05-12T16:02:43.281Z,67.37
2023-05-12T16:05:14.416Z,67.26
2023-05-12T16:07:44.927Z,68.25
2023-05-12T16:10:16.374Z,68.58
2023-05-12T16:12:48.508Z,66.59
2023-05-12T16:15:19.044Z,68.60
2023-05-12T16:17:49.560Z,67.48
2023-05-12T16:20:19.952Z,68.47
2023-05-12T16:22:51.078Z,68.13
2023-05-12T16:25:21.778Z,66.67
2023-05-12T16:27:52.535Z,66.36
2023-05-12T16:30:23.347Z,66.29
2023-05-12T16:32:53.806Z,66.19
2023-05-12T16:35:24.728Z,66.32
2023-05-12T16:37:55.464Z,66.28
2023-05-12T16:40:25.693Z,66.66
2023-05-12T16:42:57.236Z,66.32
2023-05-12T16:45:27.967Z,66.65
2023-05-12T16:47:58.463Z,66.57
2023-05-12T16:50:28.965Z,66.73
2023-05-12T16:52:59.262Z,66.99
2023-05-12T16:55:29.755Z,67.02
2023-05-12T16:58:00.108Z,67.39
2023-05-12T17:00:30.583Z,67.44
2023-05-12T17:03:03.005Z,67.56
2023-05-12T17:05:35.384Z,67.66
2023-05-12T17:08:06.025Z,67.63
2023-05-12T17:10:36.462Z,67.87
2023-05-12T17:13:07.797Z,67.75
2023-05-12T17:15:39.752Z,67.78
2023-05-12T17:18:10.166Z,68.11
2023-05-12T17:20:40.370Z,67.95
2023-05-12T17:23:10.738Z,67.78
2023-05-12T17:25:42.167Z,67.74
2023-05-12T17:28:13.294Z,67.96
2023-05-12T17:30:44.002Z,67.92
2023-05-12T17:33:15.342Z,67.76
2023-05-12T17:35:57.152Z,67.81
2023-05-12T17:38:36.275Z,68.26
2023-05-12T17:41:06.592Z,68.11
2023-05-12T17:43:36.929Z,68.14
2023-05-12T17:46:07.778Z,68.52
2023-05-12T17:48:38.263Z,68.61
2023-05-12T17:51:08.767Z,68.63
2023-05-12T17:53:38.879Z,68.33
2023-05-12T17:56:09.456Z,68.38
2023-05-12T17:58:39.873Z,68.60
2023-05-12T18:01:10.494Z,68.47
2023-05-12T18:03:40.921Z,68.54
2023-05-12T18:06:15.098Z,68.45
2023-05-12T18:08:45.762Z,68.51
2023-05-12T18:11:16.797Z,68.63
2023-05-12T18:13:47.047Z,68.60
2023-05-12T18:16:27.882Z,69.34
2023-05-12T18:18:59.963Z,68.57
2023-05-12T18:21:30.445Z,68.84
2023-05-12T18:24:00.800Z,68.18
2023-05-12T18:26:31.794Z,67.99
2023-05-12T18:29:02.134Z,68.29
2023-05-12T18:31:32.638Z,68.51
2023-05-12T18:34:04.399Z,68.62
2023-05-12T18:36:34.641Z,68.45
2023-05-12T18:39:05.324Z,68.49
2023-05-12T18:41:35.452Z,68.27
2023-05-12T18:44:05.548Z,68.51
2023-05-12T18:46:35.737Z,68.57
2023-05-12T18:49:06.306Z,68.29
2023-05-12T18:51:36.827Z,68.24
2023-05-12T18:54:07.487Z,68.35
2023-05-12T18:56:37.872Z,68.20
2023-05-12T18:59:08.166Z,68.38
2023-05-12T19:01:38.883Z,68.62
2023-05-12T19:04:09.198Z,68.69
2023-05-12T19:06:39.636Z,68.68
2023-05-12T19:09:10.260Z,68.90
2023-05-12T19:11:40.609Z,68.69
2023-05-12T19:14:11.117Z,68.59
2023-05-12T19:16:42.340Z,68.40
2023-05-12T19:19:12.971Z,68.78
2023-05-12T19:21:43.279Z,68.94
2023-05-12T19:24:13.890Z,69.00
2023-05-12T19:26:44.333Z,68.95
2023-05-12T19:29:14.687Z,68.86
2023-05-12T19:31:45.339Z,68.90
2023-05-12T19:34:15.744Z,68.92
2023-05-12T19:36:46.442Z,68.56
2023-05-12T19:39:17.963Z,68.63
2023-05-12T19:41:48.717Z,68.80
2023-05-12T19:44:20.627Z,69.02
2023-05-12T19:46:51.119Z,68.98
2023-05-12T19:49:21.618Z,69.30
2023-05-12T19:51:51.794Z,69.11
2023-05-12T19:54:22.079Z,69.73
2023-05-12T19:56:52.318Z,69.50
2023-05-12T19:59:22.485Z,69.53
2023-05-12T20:01:53.676Z,69.59
2023-05-12T20:04:23.508Z,69.57
2023-05-12T20:06:56.291Z,69.82
2023-05-12T20:09:30.019Z,69.75
2023-05-12T20:12:00.480Z,69.77
2023-05-12T20:14:30.679Z,69.70
2023-05-12T20:17:01.543Z,69.54
2023-05-12T20:19:31.976Z,69.69
2023-05-12T20:22:04.450Z,69.48
2023-05-12T20:24:35.486Z,69.79
2023-05-12T20:27:06.055Z,69.45
2023-05-12T20:29:36.793Z,69.54
2023-05-12T20:32:07.286Z,69.86
2023-05-12T20:34:37.573Z,69.60
2023-05-12T20:37:08.261Z,69.46
2023-05-12T20:39:38.520Z,69.47
2023-05-12T20:42:12.513Z,69.75
2023-05-12T20:44:43.050Z,69.78
2023-05-12T20:47:13.483Z,69.75
2023-05-12T20:49:43.963Z,69.81
2023-05-12T20:52:14.284Z,69.74
2023-05-12T20:54:44.484Z,69.70
2023-05-12T20:57:14.788Z,69.51
2023-05-12T20:59:45.702Z,69.43
2023-05-12T21:02:17.052Z,69.30
2023-05-12T21:04:49.181Z,69.16
2023-05-12T21:07:19.257Z,69.06
2023-05-12T21:09:50.211Z,69.33
2023-05-12T21:12:20.140Z,69.31
2023-05-12T21:14:50.228Z,69.20
2023-05-12T21:17:20.973Z,69.02
2023-05-12T21:19:51.343Z,69.04
2023-05-12T21:22:21.574Z,69.05
2023-05-12T21:24:51.869Z,69.00
2023-05-12T21:27:22.230Z,69.33
2023-05-12T21:29:52.509Z,69.26
2023-05-12T21:32:23.257Z,69.16
2023-05-12T21:34:53.659Z,69.24
2023-05-12T21:37:23.990Z,69.38
2023-05-12T21:39:54.322Z,69.16
2023-05-12T21:42:24.935Z,68.93
2023-05-12T21:44:55.632Z,69.40
2023-05-12T21:47:27.033Z,69.61
2023-05-12T21:49:58.406Z,69.36
2023-05-12T21:52:29.051Z,69.48
2023-05-12T21:54:59.480Z,69.67
2023-05-12T21:57:29.659Z,69.79
2023-05-12T22:00:00.591Z,69.61
2023-05-12T22:02:31.054Z,69.92
2023-05-12T22:05:01.291Z,69.37
2023-05-12T22:07:31.984Z,69.34
2023-05-12T22:10:03.428Z,69.69
2023-05-12T22:12:33.471Z,69.33
2023-05-12T22:15:04.113Z,69.67
2023-05-12T22:17:34.474Z,70.11
2023-05-12T22:20:04.952Z,70.29
2023-05-12T22:22:35.597Z,70.51
2023-05-12T22:25:07.154Z,71.04
2023-05-12T22:27:37.440Z,70.77
2023-05-12T22:30:10.008Z,70.89
2023-05-12T22:32:40.363Z,71.05
2023-05-12T22:35:11.092Z,70.85
2023-05-12T22:37:41.295Z,71.12
2023-05-12T22:40:12.220Z,70.97
2023-05-12T22:42:42.475Z,71.09
2023-05-12T22:45:13.159Z,71.10
2023-05-12T22:47:43.626Z,71.30
2023-05-12T22:50:14.177Z,71.60
2023-05-12T22:52:45.666Z,71.32
2023-05-12T22:55:16.045Z,71.17
2023-05-12T22:57:50.643Z,71.24
2023-05-12T23:00:21.477Z,71.84
2023-05-12T23:02:52.088Z,71.70
2023-05-12T23:05:23.003Z,71.45
2023-05-12T23:07:53.319Z,71.54
2023-05-12T23:10:23.905Z,71.34
2023-05-12T23:12:54.417Z,71.52
2023-05-12T23:15:24.849Z,71.31
2023-05-12T23:17:55.253Z,71.18
2023-05-12T23:20:25.542Z,71.31
2023-05-12T23:22:57.013Z,71.21
2023-05-12T23:25:26.884Z,71.35
2023-05-12T23:27:56.990Z,71.33
2023-05-12T23:30:27.241Z,71.69
2023-05-12T23:32:57.718Z,71.68
2023-05-12T23:35:28.747Z,71.69
2023-05-12T23:37:58.893Z,71.51
2023-05-12T23:40:29.109Z,71.41
2023-05-12T23:42:59.366Z,71.74
2023-05-12T23:45:29.555Z,71.78
2023-05-12T23:48:00.295Z,71.69
2023-05-12T23:50:30.561Z,71.88
2023-05-12T23:53:00.809Z,71.68
2023-05-12T23:55:31.163Z,71.84
2023-05-12T23:58:01.677Z,71.83
